createdAt,value
2017-05-15T00:00:03.496Z,1018.65
2017-05-15T00:00:44.071Z,1018.65
2017-05-15T00:01:24.720Z,1018.69
2017-05-15T00:02:05.293Z,1018.71
2017-05-15T00:02:45.888Z,1018.7
2017-05-15T00:03:26.493Z,1018.72
2017-05-15T00:04:07.059Z,1018.72
2017-05-15T00:04:47.643Z,1018.73
2017-05-15T00:05:28.226Z,1018.71
2017-05-15T00:06:08.833Z,1018.73
2017-05-15T00:06:49.490Z,1018.74
2017-05-15T00:07:30.085Z,1018.71
2017-05-15T00:08:10.686Z,1018.69
2017-05-15T00:08:51.270Z,1018.68
2017-05-15T00:09:31.850Z,1018.68
2017-05-15T00:10:12.441Z,1018.68
2017-05-15T00:10:53.045Z,1018.7
2017-05-15T00:11:33.593Z,1018.65
2017-05-15T00:12:14.170Z,1018.68
2017-05-15T00:12:54.762Z,1018.68
2017-05-15T00:13:35.341Z,1018.68
2017-05-15T00:14:15.920Z,1018.67
2017-05-15T00:14:56.507Z,1018.66
2017-05-15T00:15:37.104Z,1018.71
2017-05-15T00:16:17.707Z,1018.68
2017-05-15T00:16:58.283Z,1018.66
2017-05-15T00:17:38.856Z,1018.69
2017-05-15T00:18:19.451Z,1018.65
2017-05-15T00:19:00.184Z,1018.66
2017-05-15T00:19:40.773Z,1018.64
2017-05-15T00:20:21.354Z,1018.66
2017-05-15T00:21:01.965Z,1018.65
2017-05-15T00:21:42.550Z,1018.66
2017-05-15T00:22:23.125Z,1018.65
2017-05-15T00:23:03.717Z,1018.67
2017-05-15T00:23:44.288Z,1018.65
2017-05-15T00:24:24.889Z,1018.65
2017-05-15T00:25:05.479Z,1018.68
2017-05-15T00:25:46.065Z,1018.65
2017-05-15T00:26:26.684Z,1018.59
2017-05-15T00:27:07.261Z,1018.62
2017-05-15T00:27:47.837Z,1018.63
2017-05-15T00:28:28.441Z,1018.6
2017-05-15T00:29:09.034Z,1018.58
2017-05-15T00:29:49.634Z,1018.6
2017-05-15T00:30:30.233Z,1018.6
2017-05-15T00:31:10.830Z,1018.57
2017-05-15T00:31:51.443Z,1018.61
2017-05-15T00:32:32.037Z,1018.58
2017-05-15T00:33:12.619Z,1018.57
2017-05-15T00:33:53.197Z,1018.57
2017-05-15T00:34:33.761Z,1018.58
2017-05-15T00:35:14.350Z,1018.58
2017-05-15T00:35:54.925Z,1018.61
2017-05-15T00:36:35.505Z,1018.62
2017-05-15T00:37:16.098Z,1018.61
2017-05-15T00:37:56.683Z,1018.63
2017-05-15T00:38:37.295Z,1018.59
2017-05-15T00:39:17.903Z,1018.61
2017-05-15T00:39:58.482Z,1018.58
2017-05-15T00:40:39.067Z,1018.58
2017-05-15T00:41:19.679Z,1018.59
2017-05-15T00:42:00.259Z,1018.58
2017-05-15T00:42:40.824Z,1018.55
2017-05-15T00:43:21.411Z,1018.6
2017-05-15T00:44:01.992Z,1018.55
2017-05-15T00:44:42.586Z,1018.55
2017-05-15T00:45:23.187Z,1018.57
2017-05-15T00:46:03.791Z,1018.56
2017-05-15T00:46:44.373Z,1018.61
2017-05-15T00:47:24.938Z,1018.59
2017-05-15T00:48:05.513Z,1018.6
2017-05-15T00:48:46.077Z,1018.62
2017-05-15T00:49:26.701Z,1018.63
2017-05-15T00:50:07.273Z,1018.59
2017-05-15T00:50:47.854Z,1018.62
2017-05-15T00:51:28.462Z,1018.61
2017-05-15T00:52:09.053Z,1018.66
2017-05-15T00:52:49.627Z,1018.66
2017-05-15T00:53:30.206Z,1018.64
2017-05-15T00:54:10.782Z,1018.65
2017-05-15T00:54:51.383Z,1018.64
2017-05-15T00:55:31.962Z,1018.65
2017-05-15T00:56:12.538Z,1018.64
2017-05-15T00:56:53.119Z,1018.64
2017-05-15T00:57:33.681Z,1018.65
2017-05-15T00:58:14.282Z,1018.64
2017-05-15T00:58:54.890Z,1018.65
2017-05-15T00:59:35.460Z,1018.66
2017-05-15T01:00:16.035Z,1018.65
2017-05-15T01:00:56.638Z,1018.68
2017-05-15T01:01:37.212Z,1018.67
2017-05-15T01:02:17.788Z,1018.68
2017-05-15T01:02:58.382Z,1018.69
2017-05-15T01:03:38.962Z,1018.72
2017-05-15T01:04:19.547Z,1018.68
2017-05-15T01:05:00.158Z,1018.72
2017-05-15T01:05:40.690Z,1018.75
2017-05-15T01:06:21.266Z,1018.71
2017-05-15T01:07:01.845Z,1018.71
2017-05-15T01:07:42.429Z,1018.74
2017-05-15T01:08:23.009Z,1018.78
2017-05-15T01:09:03.596Z,1018.74
2017-05-15T01:09:44.201Z,1018.74
2017-05-15T01:10:24.772Z,1018.76
2017-05-15T01:11:05.362Z,1018.75
2017-05-15T01:11:45.936Z,1018.72
2017-05-15T01:12:26.515Z,1018.77
2017-05-15T01:13:07.120Z,1018.82
2017-05-15T01:13:47.683Z,1018.86
2017-05-15T01:14:28.261Z,1018.87
2017-05-15T01:15:08.841Z,1018.86
2017-05-15T01:15:49.455Z,1018.92
2017-05-15T01:16:30.023Z,1018.92
2017-05-15T01:17:10.626Z,1018.91
2017-05-15T01:17:51.206Z,1018.93
2017-05-15T01:18:31.795Z,1018.94
2017-05-15T01:19:12.375Z,1018.93
2017-05-15T01:19:52.989Z,1019
2017-05-15T01:20:33.582Z,1018.97
2017-05-15T01:21:14.196Z,1018.96
2017-05-15T01:21:54.778Z,1018.97
2017-05-15T01:22:35.369Z,1019.02
2017-05-15T01:23:15.937Z,1019.05
2017-05-15T01:23:56.499Z,1019.03
2017-05-15T01:24:37.075Z,1019.07
2017-05-15T01:25:17.639Z,1019.07
2017-05-15T01:25:58.250Z,1019.06
2017-05-15T01:26:38.843Z,1019.07
2017-05-15T01:27:19.424Z,1019.11
2017-05-15T01:28:00.007Z,1019.15
2017-05-15T01:28:40.598Z,1019.14
2017-05-15T01:29:21.178Z,1019.16
2017-05-15T01:30:01.751Z,1019.12
2017-05-15T01:30:42.333Z,1019.16
2017-05-15T01:31:22.905Z,1019.2
2017-05-15T01:32:03.481Z,1019.22
2017-05-15T01:32:44.055Z,1019.21
2017-05-15T01:33:24.617Z,1019.23
2017-05-15T01:34:05.196Z,1019.26
2017-05-15T01:34:45.754Z,1019.2
2017-05-15T01:35:26.341Z,1019.22
2017-05-15T01:36:06.924Z,1019.23
2017-05-15T01:36:47.512Z,1019.26
2017-05-15T01:37:28.106Z,1019.2
2017-05-15T01:38:08.715Z,1019.22
2017-05-15T01:38:49.310Z,1019.23
2017-05-15T01:39:29.936Z,1019.2
2017-05-15T01:40:10.655Z,1019.23
2017-05-15T01:40:51.283Z,1019.2
2017-05-15T01:41:31.877Z,1019.21
2017-05-15T01:42:12.484Z,1019.25
2017-05-15T01:42:53.072Z,1019.25
2017-05-15T01:43:33.664Z,1019.23
2017-05-15T01:44:14.240Z,1019.21
2017-05-15T01:44:54.850Z,1019.25
2017-05-15T01:45:35.446Z,1019.25
2017-05-15T01:46:16.021Z,1019.22
2017-05-15T01:46:56.650Z,1019.19
2017-05-15T01:47:37.223Z,1019.21
2017-05-15T01:48:17.820Z,1019.22
2017-05-15T01:48:58.407Z,1019.19
2017-05-15T01:49:39.000Z,1019.2
2017-05-15T01:50:19.594Z,1019.16
2017-05-15T01:51:00.206Z,1019.18
2017-05-15T01:51:40.803Z,1019.16
2017-05-15T01:52:21.395Z,1019.16
2017-05-15T01:53:01.986Z,1019.15
2017-05-15T01:53:42.562Z,1019.18
2017-05-15T01:54:23.153Z,1019.18
2017-05-15T01:55:03.748Z,1019.2
2017-05-15T01:55:44.357Z,1019.2
2017-05-15T01:56:24.931Z,1019.25
2017-05-15T01:57:05.516Z,1019.27
2017-05-15T01:57:46.105Z,1019.27
2017-05-15T01:58:26.696Z,1019.31
2017-05-15T01:59:07.315Z,1019.32
2017-05-15T01:59:47.900Z,1019.32
2017-05-15T02:00:28.514Z,1019.31
2017-05-15T02:01:09.105Z,1019.32
2017-05-15T02:01:49.689Z,1019.3
2017-05-15T02:02:30.254Z,1019.31
2017-05-15T02:03:10.852Z,1019.34
2017-05-15T02:03:51.447Z,1019.31
2017-05-15T02:04:32.020Z,1019.37
2017-05-15T02:05:12.604Z,1019.33
2017-05-15T02:05:53.176Z,1019.32
2017-05-15T02:06:33.777Z,1019.29
2017-05-15T02:07:14.361Z,1019.34
2017-05-15T02:07:54.947Z,1019.32
2017-05-15T02:08:35.530Z,1019.35
2017-05-15T02:09:16.124Z,1019.35
2017-05-15T02:09:56.691Z,1019.36
2017-05-15T02:10:37.283Z,1019.39
2017-05-15T02:11:17.879Z,1019.35
2017-05-15T02:11:58.451Z,1019.39
2017-05-15T02:12:39.031Z,1019.36
2017-05-15T02:13:19.591Z,1019.36
2017-05-15T02:14:00.189Z,1019.34
2017-05-15T02:14:40.789Z,1019.36
2017-05-15T02:15:21.377Z,1019.36
2017-05-15T02:16:01.972Z,1019.31
2017-05-15T02:16:42.538Z,1019.31
2017-05-15T02:17:23.127Z,1019.33
2017-05-15T02:18:03.692Z,1019.33
2017-05-15T02:18:44.263Z,1019.31
2017-05-15T02:19:24.853Z,1019.3
2017-05-15T02:20:05.437Z,1019.3
2017-05-15T02:20:46.007Z,1019.3
2017-05-15T02:21:26.608Z,1019.36
2017-05-15T02:22:07.184Z,1019.35
2017-05-15T02:22:47.758Z,1019.3
2017-05-15T02:23:28.315Z,1019.32
2017-05-15T02:24:08.910Z,1019.31
2017-05-15T02:24:49.524Z,1019.34
2017-05-15T02:25:30.092Z,1019.33
2017-05-15T02:26:10.663Z,1019.31
2017-05-15T02:26:51.249Z,1019.31
2017-05-15T02:27:31.822Z,1019.31
2017-05-15T02:28:12.423Z,1019.32
2017-05-15T02:28:53.003Z,1019.27
2017-05-15T02:29:33.573Z,1019.29
2017-05-15T02:30:14.163Z,1019.3
2017-05-15T02:30:54.744Z,1019.3
2017-05-15T02:31:35.323Z,1019.34
2017-05-15T02:32:15.886Z,1019.36
2017-05-15T02:32:56.518Z,1019.36
2017-05-15T02:33:37.101Z,1019.33
2017-05-15T02:34:17.672Z,1019.33
2017-05-15T02:34:58.264Z,1019.31
2017-05-15T02:35:38.874Z,1019.34
2017-05-15T02:36:19.464Z,1019.33
2017-05-15T02:37:00.048Z,1019.37
2017-05-15T02:37:40.631Z,1019.34
2017-05-15T02:38:21.210Z,1019.33
2017-05-15T02:39:01.782Z,1019.35
2017-05-15T02:39:42.373Z,1019.34
2017-05-15T02:40:22.946Z,1019.39
2017-05-15T02:41:03.515Z,1019.35
2017-05-15T02:41:44.125Z,1019.38
2017-05-15T02:42:24.688Z,1019.32
2017-05-15T02:43:05.281Z,1019.35
2017-05-15T02:43:45.854Z,1019.38
2017-05-15T02:44:26.429Z,1019.41
2017-05-15T02:45:07.022Z,1019.4
2017-05-15T02:45:47.646Z,1019.39
2017-05-15T02:46:28.232Z,1019.38
2017-05-15T02:47:08.817Z,1019.46
2017-05-15T02:47:49.407Z,1019.38
2017-05-15T02:48:29.976Z,1019.4
2017-05-15T02:49:10.554Z,1019.42
2017-05-15T02:49:51.156Z,1019.4
2017-05-15T02:50:31.769Z,1019.4
2017-05-15T02:51:12.363Z,1019.4
2017-05-15T02:51:52.947Z,1019.35
2017-05-15T02:52:33.563Z,1019.36
2017-05-15T02:53:14.155Z,1019.38
2017-05-15T02:53:54.725Z,1019.38
2017-05-15T02:54:35.325Z,1019.38
2017-05-15T02:55:15.900Z,1019.37
2017-05-15T02:55:56.484Z,1019.41
2017-05-15T02:56:37.064Z,1019.43
2017-05-15T02:57:17.655Z,1019.38
2017-05-15T02:57:58.237Z,1019.39
2017-05-15T02:58:38.813Z,1019.37
2017-05-15T02:59:19.377Z,1019.41
2017-05-15T02:59:59.957Z,1019.41
2017-05-15T03:00:40.533Z,1019.4
2017-05-15T03:01:21.127Z,1019.37
2017-05-15T03:02:01.709Z,1019.4
2017-05-15T03:02:42.293Z,1019.4
2017-05-15T03:03:22.863Z,1019.45
2017-05-15T03:04:03.431Z,1019.39
2017-05-15T03:04:44.013Z,1019.42
2017-05-15T03:05:24.618Z,1019.45
2017-05-15T03:06:05.205Z,1019.43
2017-05-15T03:06:45.793Z,1019.42
2017-05-15T03:07:26.386Z,1019.4
2017-05-15T03:08:06.964Z,1019.38
2017-05-15T03:08:47.542Z,1019.37
2017-05-15T03:09:28.132Z,1019.38
2017-05-15T03:10:08.749Z,1019.36
2017-05-15T03:10:49.348Z,1019.46
2017-05-15T03:11:29.965Z,1019.44
2017-05-15T03:12:10.556Z,1019.43
2017-05-15T03:12:51.149Z,1019.47
2017-05-15T03:13:31.767Z,1019.48
2017-05-15T03:14:12.365Z,1019.49
2017-05-15T03:14:52.917Z,1019.55
2017-05-15T03:15:33.510Z,1019.56
2017-05-15T03:16:14.084Z,1019.55
2017-05-15T03:16:54.657Z,1019.53
2017-05-15T03:17:35.233Z,1019.57
2017-05-15T03:18:15.800Z,1019.56
2017-05-15T03:18:56.372Z,1019.53
2017-05-15T03:19:36.946Z,1019.5
2017-05-15T03:20:17.526Z,1019.52
2017-05-15T03:20:58.124Z,1019.51
2017-05-15T03:21:38.732Z,1019.53
2017-05-15T03:22:19.327Z,1019.51
2017-05-15T03:22:59.910Z,1019.49
2017-05-15T03:23:40.487Z,1019.5
2017-05-15T03:24:21.070Z,1019.5
2017-05-15T03:25:01.638Z,1019.52
2017-05-15T03:25:42.244Z,1019.48
2017-05-15T03:26:22.823Z,1019.48
2017-05-15T03:27:03.432Z,1019.5
2017-05-15T03:27:44.043Z,1019.47
2017-05-15T03:28:24.645Z,1019.5
2017-05-15T03:29:05.240Z,1019.47
2017-05-15T03:29:45.813Z,1019.42
2017-05-15T03:30:26.391Z,1019.49
2017-05-15T03:31:06.976Z,1019.5
2017-05-15T03:31:47.554Z,1019.51
2017-05-15T03:32:28.150Z,1019.47
2017-05-15T03:33:08.779Z,1019.53
2017-05-15T03:33:49.391Z,1019.5
2017-05-15T03:34:29.970Z,1019.49
2017-05-15T03:35:10.559Z,1019.55
2017-05-15T03:35:51.189Z,1019.57
2017-05-15T03:36:31.754Z,1019.57
2017-05-15T03:37:12.320Z,1019.55
2017-05-15T03:37:52.891Z,1019.56
2017-05-15T03:38:33.463Z,1019.55
2017-05-15T03:39:14.044Z,1019.53
2017-05-15T03:39:54.647Z,1019.53
2017-05-15T03:40:35.244Z,1019.56
2017-05-15T03:41:15.865Z,1019.54
2017-05-15T03:41:56.448Z,1019.58
2017-05-15T03:42:37.026Z,1019.6
2017-05-15T03:43:17.613Z,1019.64
2017-05-15T03:43:58.227Z,1019.62
2017-05-15T03:44:38.796Z,1019.6
2017-05-15T03:45:19.380Z,1019.63
2017-05-15T03:45:59.976Z,1019.63
2017-05-15T03:46:40.565Z,1019.62
2017-05-15T03:47:21.148Z,1019.63
2017-05-15T03:48:01.736Z,1019.64
2017-05-15T03:48:42.320Z,1019.63
2017-05-15T03:49:22.890Z,1019.62
2017-05-15T03:50:03.457Z,1019.63
2017-05-15T03:50:44.038Z,1019.65
2017-05-15T03:51:24.620Z,1019.61
2017-05-15T03:52:05.205Z,1019.62
2017-05-15T03:52:45.783Z,1019.63
2017-05-15T03:53:26.356Z,1019.62
2017-05-15T03:54:06.928Z,1019.6
2017-05-15T03:54:47.548Z,1019.66
2017-05-15T03:55:28.127Z,1019.62
2017-05-15T03:56:08.715Z,1019.62
2017-05-15T03:56:49.301Z,1019.63
2017-05-15T03:57:29.882Z,1019.6
2017-05-15T03:58:10.458Z,1019.62
2017-05-15T03:58:51.040Z,1019.6
2017-05-15T03:59:31.622Z,1019.62
2017-05-15T04:00:12.188Z,1019.61
2017-05-15T04:00:52.785Z,1019.64
2017-05-15T04:01:33.361Z,1019.65
2017-05-15T04:02:13.940Z,1019.66
2017-05-15T04:02:54.560Z,1019.66
2017-05-15T04:03:35.147Z,1019.7
2017-05-15T04:04:15.730Z,1019.7
2017-05-15T04:04:56.305Z,1019.71
2017-05-15T04:05:36.874Z,1019.72
2017-05-15T04:06:17.449Z,1019.68
2017-05-15T04:06:58.027Z,1019.74
2017-05-15T04:07:38.612Z,1019.74
2017-05-15T04:08:19.178Z,1019.73
2017-05-15T04:08:59.749Z,1019.78
2017-05-15T04:09:40.336Z,1019.77
2017-05-15T04:10:20.954Z,1019.77
2017-05-15T04:11:01.576Z,1019.78
2017-05-15T04:11:42.146Z,1019.77
2017-05-15T04:12:22.722Z,1019.82
2017-05-15T04:13:03.330Z,1019.81
2017-05-15T04:13:43.932Z,1019.87
2017-05-15T04:14:24.506Z,1019.9
2017-05-15T04:15:05.088Z,1019.9
2017-05-15T04:15:45.692Z,1019.92
2017-05-15T04:16:26.262Z,1019.92
2017-05-15T04:17:06.851Z,1019.92
2017-05-15T04:17:47.425Z,1019.93
2017-05-15T04:18:28.035Z,1019.97
2017-05-15T04:19:08.635Z,1019.96
2017-05-15T04:19:49.210Z,1019.99
2017-05-15T04:20:29.798Z,1020
2017-05-15T04:21:10.352Z,1020.01
2017-05-15T04:21:50.935Z,1020.04
2017-05-15T04:22:31.511Z,1020.04
2017-05-15T04:23:12.091Z,1020.05
2017-05-15T04:23:52.666Z,1020.09
2017-05-15T04:24:33.251Z,1020.12
2017-05-15T04:25:13.854Z,1020.13
2017-05-15T04:25:54.445Z,1020.19
2017-05-15T04:26:35.025Z,1020.17
2017-05-15T04:27:15.616Z,1020.17
2017-05-15T04:27:56.196Z,1020.17
2017-05-15T04:28:36.775Z,1020.13
2017-05-15T04:29:17.365Z,1020.16
2017-05-15T04:29:57.953Z,1020.14
2017-05-15T04:30:38.546Z,1020.13
2017-05-15T04:31:19.231Z,1020.11
2017-05-15T04:31:59.841Z,1020.12
2017-05-15T04:32:40.453Z,1020.15
2017-05-15T04:33:21.041Z,1020.13
2017-05-15T04:34:01.625Z,1020.12
2017-05-15T04:34:42.199Z,1020.12
2017-05-15T04:35:22.793Z,1020.16
2017-05-15T04:36:03.363Z,1020.12
2017-05-15T04:36:43.959Z,1020.14
2017-05-15T04:37:24.534Z,1020.16
2017-05-15T04:38:05.301Z,1020.15
2017-05-15T04:40:23.283Z,1020.19
2017-05-15T04:41:03.860Z,1020.19
2017-05-15T04:41:44.438Z,1020.24
2017-05-15T04:42:25.038Z,1020.19
2017-05-15T04:43:05.621Z,1020.23
2017-05-15T04:43:46.225Z,1020.2
2017-05-15T04:44:26.791Z,1020.24
2017-05-15T04:45:07.401Z,1020.2
2017-05-15T04:45:47.996Z,1020.22
2017-05-15T04:46:28.550Z,1020.22
2017-05-15T04:47:09.116Z,1020.21
2017-05-15T04:47:49.708Z,1020.21
2017-05-15T04:48:30.284Z,1020.23
2017-05-15T04:49:10.867Z,1020.27
2017-05-15T04:49:51.427Z,1020.25
2017-05-15T04:50:32.003Z,1020.33
2017-05-15T04:51:12.607Z,1020.3
2017-05-15T04:51:53.207Z,1020.33
2017-05-15T04:52:33.805Z,1020.35
2017-05-15T04:53:14.382Z,1020.29
2017-05-15T04:53:54.970Z,1020.34
2017-05-15T04:54:35.548Z,1020.26
2017-05-15T04:55:16.111Z,1020.3
2017-05-15T04:55:56.684Z,1020.29
2017-05-15T04:56:37.256Z,1020.35
2017-05-15T04:57:17.830Z,1020.4
2017-05-15T04:57:58.415Z,1020.39
2017-05-15T04:58:38.989Z,1020.37
2017-05-15T04:59:19.554Z,1020.37
2017-05-15T05:00:00.130Z,1020.4
2017-05-15T05:00:40.759Z,1020.42
2017-05-15T05:01:21.364Z,1020.42
2017-05-15T05:02:01.925Z,1020.43
2017-05-15T05:02:42.523Z,1020.44
2017-05-15T05:03:23.113Z,1020.46
2017-05-15T05:04:03.710Z,1020.45
2017-05-15T05:04:44.307Z,1020.46
2017-05-15T05:05:24.901Z,1020.4
2017-05-15T05:06:05.472Z,1020.47
2017-05-15T05:06:46.035Z,1020.48
2017-05-15T05:07:26.621Z,1020.5
2017-05-15T05:08:07.200Z,1020.51
2017-05-15T05:08:47.781Z,1020.53
2017-05-15T05:09:28.366Z,1020.55
2017-05-15T05:10:08.951Z,1020.58
2017-05-15T05:10:49.508Z,1020.59
2017-05-15T05:11:30.081Z,1020.59
2017-05-15T05:12:10.679Z,1020.59
2017-05-15T05:12:51.253Z,1020.62
2017-05-15T05:13:31.864Z,1020.6
2017-05-15T05:14:12.429Z,1020.61
2017-05-15T05:14:53.001Z,1020.61
2017-05-15T05:15:33.568Z,1020.63
2017-05-15T05:16:14.227Z,1020.63
2017-05-15T05:16:54.849Z,1020.62
2017-05-15T05:17:35.425Z,1020.63
2017-05-15T05:18:16.004Z,1020.66
2017-05-15T05:18:56.595Z,1020.64
2017-05-15T05:19:37.176Z,1020.64
2017-05-15T05:20:17.753Z,1020.71
2017-05-15T05:20:58.316Z,1020.69
2017-05-15T05:21:38.992Z,1020.69
2017-05-15T05:22:19.623Z,1020.69
2017-05-15T05:23:00.231Z,1020.69
2017-05-15T05:23:40.807Z,1020.66
2017-05-15T05:24:21.377Z,1020.65
2017-05-15T05:25:01.956Z,1020.67
2017-05-15T05:25:42.534Z,1020.63
2017-05-15T05:26:23.132Z,1020.7
2017-05-15T05:27:03.698Z,1020.66
2017-05-15T05:27:44.298Z,1020.68
2017-05-15T05:28:24.880Z,1020.69
2017-05-15T05:29:05.549Z,1020.68
2017-05-15T05:29:46.152Z,1020.69
2017-05-15T05:30:26.722Z,1020.73
2017-05-15T05:31:07.296Z,1020.72
2017-05-15T05:31:47.879Z,1020.69
2017-05-15T05:32:28.466Z,1020.7
2017-05-15T05:33:09.034Z,1020.76
2017-05-15T05:33:49.661Z,1020.82
2017-05-15T05:34:30.217Z,1020.8
2017-05-15T05:35:10.806Z,1020.81
2017-05-15T05:35:51.403Z,1020.84
2017-05-15T05:36:31.991Z,1020.77
2017-05-15T05:37:12.583Z,1020.82
2017-05-15T05:37:53.207Z,1020.83
2017-05-15T05:38:33.796Z,1020.87
2017-05-15T05:39:14.385Z,1020.93
2017-05-15T05:39:55.003Z,1020.81
2017-05-15T05:40:35.595Z,1021.08
2017-05-15T05:41:16.197Z,1021.04
2017-05-15T05:41:56.730Z,1021.12
2017-05-15T05:42:37.309Z,1021.12
2017-05-15T05:43:17.892Z,1021.13
2017-05-15T05:43:58.476Z,1021.22
2017-05-15T05:44:39.076Z,1021.31
2017-05-15T05:45:19.668Z,1021.32
2017-05-15T05:46:00.238Z,1021.3
2017-05-15T05:46:40.813Z,1021.33
2017-05-15T05:47:21.466Z,1021.33
2017-05-15T05:48:01.977Z,1021.36
2017-05-15T05:48:42.571Z,1021.38
2017-05-15T05:49:23.159Z,1021.36
2017-05-15T05:50:03.777Z,1021.39
2017-05-15T05:50:44.382Z,1021.44
2017-05-15T05:51:24.964Z,1021.41
2017-05-15T05:52:05.560Z,1021.45
2017-05-15T05:52:46.130Z,1021.52
2017-05-15T05:53:26.720Z,1021.52
2017-05-15T05:54:07.310Z,1021.55
2017-05-15T05:54:47.891Z,1021.57
2017-05-15T05:55:28.481Z,1021.61
2017-05-15T05:56:09.080Z,1021.68
2017-05-15T05:56:49.672Z,1021.75
2017-05-15T05:57:30.246Z,1021.78
2017-05-15T05:58:10.847Z,1021.88
2017-05-15T05:58:51.508Z,1021.95
2017-05-15T05:59:32.122Z,1022.01
2017-05-15T06:00:12.705Z,1022.07
2017-05-15T06:00:53.294Z,1022.1
2017-05-15T06:01:33.876Z,1022.13
2017-05-15T06:02:14.457Z,1021.91
2017-05-15T06:02:55.051Z,1021.89
2017-05-15T06:03:35.641Z,1021.87
2017-05-15T06:04:16.235Z,1021.89
2017-05-15T06:04:56.811Z,1022
2017-05-15T06:05:37.410Z,1022.04
2017-05-15T06:06:17.990Z,1022.07
2017-05-15T06:06:58.579Z,1022.03
2017-05-15T06:07:39.196Z,1021.93
2017-05-15T06:08:19.774Z,1021.86
2017-05-15T06:09:00.356Z,1021.84
2017-05-15T06:09:40.966Z,1021.77
2017-05-15T06:10:21.543Z,1021.99
2017-05-15T06:11:02.124Z,1021.88
2017-05-15T06:11:42.748Z,1021.75
2017-05-15T06:12:23.362Z,1021.54
2017-05-15T06:13:03.981Z,1021.5
2017-05-15T06:13:44.574Z,1021.4
2017-05-15T06:14:25.223Z,1021.44
2017-05-15T06:15:05.807Z,1021.44
2017-05-15T06:15:46.408Z,1021.49
2017-05-15T06:16:26.973Z,1021.48
2017-05-15T06:17:07.688Z,1021.49
2017-05-15T06:17:48.289Z,1021.49
2017-05-15T06:18:28.954Z,1021.55
2017-05-15T06:19:09.533Z,1021.56
2017-05-15T06:19:50.136Z,1021.55
2017-05-15T06:20:30.723Z,1021.57
2017-05-15T06:21:11.335Z,1021.64
2017-05-15T06:21:51.914Z,1021.63
2017-05-15T06:22:32.490Z,1021.92
2017-05-15T06:23:13.132Z,1022.42
2017-05-15T06:23:53.777Z,1022.97
2017-05-15T06:24:34.339Z,1023.04
2017-05-15T06:25:14.937Z,1022.72
2017-05-15T06:25:55.516Z,1022.41
2017-05-15T06:26:36.214Z,1022.28
2017-05-15T06:27:16.833Z,1022.1
2017-05-15T06:27:59.136Z,1021.98
2017-05-15T06:28:39.810Z,1021.98
2017-05-15T06:29:20.456Z,1021.92
2017-05-15T06:30:01.096Z,1021.8
2017-05-15T06:30:41.692Z,1021.71
2017-05-15T06:31:22.263Z,1021.64
2017-05-15T06:32:02.866Z,1021.64
2017-05-15T06:32:43.462Z,1021.61
2017-05-15T06:33:24.037Z,1021.6
2017-05-15T06:34:04.619Z,1021.6
2017-05-15T06:34:46.139Z,1021.6
2017-05-15T06:35:26.724Z,1021.58
2017-05-15T06:36:07.387Z,1021.59
2017-05-15T06:36:48.025Z,1021.6
2017-05-15T06:37:28.649Z,1021.59
2017-05-15T06:38:09.215Z,1021.61
2017-05-15T06:38:49.796Z,1021.65
2017-05-15T06:39:30.390Z,1021.64
2017-05-15T06:40:10.986Z,1021.64
2017-05-15T06:40:51.653Z,1021.65
2017-05-15T06:41:32.202Z,1021.65
2017-05-15T06:42:12.771Z,1021.66
2017-05-15T06:42:53.362Z,1021.67
2017-05-15T06:43:33.969Z,1021.69
2017-05-15T06:44:14.579Z,1021.69
2017-05-15T06:44:55.155Z,1021.74
2017-05-15T06:45:35.733Z,1021.79
2017-05-15T06:46:16.317Z,1021.81
2017-05-15T06:46:56.953Z,1021.79
2017-05-15T06:47:37.534Z,1021.77
2017-05-15T06:48:18.130Z,1021.79
2017-05-15T06:48:58.783Z,1021.83
2017-05-15T06:49:39.358Z,1021.78
2017-05-15T06:50:19.935Z,1021.78
2017-05-15T06:51:00.538Z,1021.79
2017-05-15T06:51:41.128Z,1021.78
2017-05-15T06:52:21.743Z,1021.8
2017-05-15T06:53:02.358Z,1021.82
2017-05-15T06:53:42.953Z,1021.81
2017-05-15T06:54:23.542Z,1021.82
2017-05-15T06:55:04.151Z,1021.84
2017-05-15T06:55:44.743Z,1021.83
2017-05-15T06:56:25.344Z,1021.85
2017-05-15T06:57:05.928Z,1021.85
2017-05-15T06:57:46.511Z,1021.85
2017-05-15T06:58:27.074Z,1021.84
2017-05-15T06:59:08.227Z,1021.83
2017-05-15T06:59:48.907Z,1021.85
2017-05-15T07:00:29.763Z,1021.83
2017-05-15T07:01:10.568Z,1021.85
2017-05-15T07:01:51.098Z,1021.84
2017-05-15T07:02:31.763Z,1021.87
2017-05-15T07:03:12.645Z,1021.9
2017-05-15T07:03:53.258Z,1021.87
2017-05-15T07:04:33.894Z,1021.85
2017-05-15T07:05:14.909Z,1021.85
2017-05-15T07:05:55.464Z,1021.89
2017-05-15T07:06:36.053Z,1021.88
2017-05-15T07:07:16.730Z,1021.93
2017-05-15T07:07:57.317Z,1021.95
2017-05-15T07:08:38.060Z,1021.96
2017-05-15T07:09:18.562Z,1021.98
2017-05-15T07:09:59.138Z,1021.99
2017-05-15T07:10:40.125Z,1021.99
2017-05-15T07:11:20.724Z,1021.95
2017-05-15T07:12:01.403Z,1022.01
2017-05-15T07:12:42.491Z,1022.01
2017-05-15T07:13:23.171Z,1022.04
2017-05-15T07:14:03.760Z,1022.03
2017-05-15T07:14:44.337Z,1022
2017-05-15T07:15:24.973Z,1021.98
2017-05-15T07:16:05.678Z,1021.96
2017-05-15T07:16:46.236Z,1021.98
2017-05-15T07:17:26.820Z,1022.01
2017-05-15T07:18:07.413Z,1022.08
2017-05-15T07:18:48.038Z,1022.03
2017-05-15T07:19:29.062Z,1021.96
2017-05-15T07:20:09.688Z,1021.97
2017-05-15T07:20:50.357Z,1021.98
2017-05-15T07:21:30.943Z,1021.98
2017-05-15T07:22:11.532Z,1022.01
2017-05-15T07:22:52.196Z,1022.01
2017-05-15T07:23:32.796Z,1022
2017-05-15T07:24:13.439Z,1022
2017-05-15T07:24:54.163Z,1022.03
2017-05-15T07:25:34.753Z,1022.04
2017-05-15T07:26:15.356Z,1022.04
2017-05-15T07:26:55.956Z,1022.04
2017-05-15T07:27:36.537Z,1022.09
2017-05-15T07:28:17.115Z,1022.03
2017-05-15T07:28:57.969Z,1022.05
2017-05-15T07:29:38.660Z,1022.04
2017-05-15T07:30:19.262Z,1022.01
2017-05-15T07:30:59.869Z,1021.96
2017-05-15T07:31:40.452Z,1022.02
2017-05-15T07:32:21.675Z,1022.01
2017-05-15T07:33:02.371Z,1022.01
2017-05-15T07:33:42.962Z,1022.05
2017-05-15T07:34:23.550Z,1022.06
2017-05-15T07:35:04.135Z,1022.06
2017-05-15T07:35:44.746Z,1022.09
2017-05-15T07:36:25.361Z,1022.06
2017-05-15T07:37:05.942Z,1022.1
2017-05-15T07:37:46.520Z,1022.08
2017-05-15T07:38:27.105Z,1022.12
2017-05-15T07:39:07.720Z,1022.14
2017-05-15T07:39:48.307Z,1022.11
2017-05-15T07:40:28.893Z,1022.1
2017-05-15T07:41:09.468Z,1022.14
2017-05-15T07:41:50.084Z,1022.2
2017-05-15T07:42:30.723Z,1022.12
2017-05-15T07:43:11.314Z,1022.18
2017-05-15T07:43:51.951Z,1022.18
2017-05-15T07:44:32.549Z,1022.33
2017-05-15T07:45:13.154Z,1022.38
2017-05-15T07:45:53.753Z,1022.35
2017-05-15T07:46:34.330Z,1022.3
2017-05-15T07:47:14.900Z,1022.3
2017-05-15T07:47:55.483Z,1022.31
2017-05-15T07:48:36.081Z,1022.33
2017-05-15T07:49:16.668Z,1022.25
2017-05-15T07:49:57.472Z,1022.17
2017-05-15T07:50:38.090Z,1022.33
2017-05-15T07:51:18.697Z,1022.27
2017-05-15T07:51:59.283Z,1022.26
2017-05-15T07:52:39.899Z,1022.23
2017-05-15T07:53:20.491Z,1022.28
2017-05-15T07:54:01.109Z,1022.3
2017-05-15T07:54:41.702Z,1022.25
2017-05-15T07:55:22.307Z,1022.29
2017-05-15T07:56:02.901Z,1022.29
2017-05-15T07:56:43.498Z,1022.29
2017-05-15T07:57:24.090Z,1022.28
2017-05-15T07:58:04.668Z,1022.39
2017-05-15T07:58:45.262Z,1022.37
2017-05-15T07:59:25.845Z,1022.35
2017-05-15T08:00:06.468Z,1022.38
2017-05-15T08:00:47.070Z,1022.38
2017-05-15T08:01:27.670Z,1022.35
2017-05-15T08:02:08.277Z,1022.39
2017-05-15T08:02:48.874Z,1022.34
2017-05-15T08:03:29.459Z,1022.39
2017-05-15T08:04:10.080Z,1022.4
2017-05-15T08:04:50.677Z,1022.42
2017-05-15T08:05:31.276Z,1022.46
2017-05-15T08:06:11.888Z,1022.45
2017-05-15T08:06:52.474Z,1022.39
2017-05-15T08:07:33.084Z,1022.4
2017-05-15T08:08:13.678Z,1022.44
2017-05-15T08:08:54.390Z,1022.48
2017-05-15T08:09:34.974Z,1022.47
2017-05-15T08:10:15.558Z,1022.5
2017-05-15T08:10:56.141Z,1022.47
2017-05-15T08:11:36.732Z,1022.48
2017-05-15T08:12:17.317Z,1022.51
2017-05-15T08:12:57.899Z,1022.52
2017-05-15T08:13:38.494Z,1022.55
2017-05-15T08:14:19.088Z,1022.58